Fort Smith, AR (72901)

12:59 PM CDT on July 26, 2017 (GMT -0500)
Waldron and Grand | | Change Station
Active Advisory: Heat Advisory

Elev 482 ft 35.39 °N, 94.37 °W | Updated 11 seconds ago

Partly Cloudy
Partly Cloudy
97.3 °F
Feels Like 112 °F
N
2.2
Wind Variable Wind from North

Today
High -- | Low -- °F
--% Chance of Precip.
Yesterday
High -- | Low -- °F
Precip. -- in
Pressure 30.04 in
Visibility 10.0 miles
Clouds Few 4800 ft
Heat Index 112 °F
Dew Point 76 °F
Humidity 51%
Rainfall 0.00 in
Snow Depth Not available.
6:22 AM 8:25 PM
Waxing Crescent, 14% visible
METAR KFSM 261753Z 20009KT 10SM FEW048 35/23 A3005 RMK AO2 SLP170 T03500233 10350 20244 58005
Pressure 30.04 in
Visibility 10.0 miles
Clouds Few 4800 ft
Heat Index 112 °F
Dew Point 76 °F
Humidity 51%
Rainfall 0.00 in
Snow Depth Not available.
6:22 AM 8:25 PM
Waxing Crescent, 14% visible
METAR KFSM 261753Z 20009KT 10SM FEW048 35/23 A3005 RMK AO2 SLP170 T03500233 10350 20244 58005

Get Your Daily Forecast Email!

Thanks for signing up!

Be on the lookout for a verification email in your inbox.

You'll start receiving severe weather alerts in your inbox..

×

10-Day Weather Forecast

Almanac

Astronomy

Jul. 26, 2017 Rise Set
Actual Time
Civil Twilight
Nautical Twilight
Astronomical Twilight
Moon
Length of Visible Light
Length of Day
Tomorrow will be .
, % of the Moon is Illuminated

Today's Extremes

State Highs State Lows

Community

WunderPhotos

Category 6

Welcome to Category 6. This is the collective home for Weather Underground's featured writeups by Dr. Jeff Masters (right), Bob Henson (left), Chris Burt, and other regular contributors.

Nearby

Air Quality

  Air Quality AQ Index Pollutant
Not available.

Snow Depth

Station Depth Elevation

Earthquake Activity

City Distance Mag. Time & Date
Minimum magnitude displayed is 2.5.

Coastal Water Temperatures

Place Temperature

Stations

Nearby Weather Stations

Station Location Temp. Windchill Dew Point Humidity Wind Precip. Elev Updated Type
                   

Watches & Warnings

Heat Advisory
Issued: 2:51 AM CDT Jul. 26, 2017 – National Weather Service

... Heat advisory remains in effect until 8 PM CDT Thursday...

* temperature... high temperatures are expected to range in the
mid to upper 90s this afternoon and again Thursday afternoon.
These temperatures, combined with high humidity, will result in
dangerous heat index values in the 105 to 110 degree range.

* Impacts... the combination of hot temperatures and high
humidity will create a dangerous situation in which heat
illnesses are possible.

Precautionary/preparedness actions...

Take extra precautions if you work or spend time outside. When
possible, reschedule strenuous activities to early morning or
evening. Know the signs and symptoms of heat exhaustion and heat
stroke. Wear light weight and loose fitting clothing when
possible and drink plenty of water.